sensor_id;sensor_type;location;lat;lon;timestamp;P1;durP1;ratioP1;P2;durP2;ratioP2
61250;SDS011;47126;47.508;8.590;2022-11-12T00:01:35;42.17;;;21.95;;
61250;SDS011;47126;47.508;8.590;2022-11-12T00:04:01;48.38;;;23.67;;
61250;SDS011;47126;47.508;8.590;2022-11-12T00:06:27;43.35;;;22.42;;
61250;SDS011;47126;47.508;8.590;2022-11-12T00:08:53;48.45;;;22.63;;
61250;SDS011;47126;47.508;8.590;2022-11-12T00:11:19;41.42;;;21.55;;
61250;SDS011;47126;47.508;8.590;2022-11-12T00:13:45;40.83;;;21.98;;
61250;SDS011;47126;47.508;8.590;2022-11-12T00:16:11;40.70;;;21.20;;
61250;SDS011;47126;47.508;8.590;2022-11-12T00:18:37;46.15;;;22.45;;
61250;SDS011;47126;47.508;8.590;2022-11-12T00:21:03;41.83;;;22.45;;
61250;SDS011;47126;47.508;8.590;2022-11-12T00:23:29;46.60;;;23.10;;
61250;SDS011;47126;47.508;8.590;2022-11-12T00:25:59;43.55;;;22.27;;
61250;SDS011;47126;47.508;8.590;2022-11-12T00:28:25;44.85;;;21.83;;
61250;SDS011;47126;47.508;8.590;2022-11-12T00:30:51;45.30;;;21.88;;
61250;SDS011;47126;47.508;8.590;2022-11-12T00:33:17;42.03;;;21.13;;
61250;SDS011;47126;47.508;8.590;2022-11-12T00:35:43;45.53;;;22.00;;
61250;SDS011;47126;47.508;8.590;2022-11-12T00:38:08;42.35;;;22.27;;
61250;SDS011;47126;47.508;8.590;2022-11-12T00:40:34;44.47;;;22.25;;
61250;SDS011;47126;47.508;8.590;2022-11-12T00:43:00;49.33;;;20.88;;
61250;SDS011;47126;47.508;8.590;2022-11-12T00:45:26;45.45;;;22.00;;
61250;SDS011;47126;47.508;8.590;2022-11-12T00:47:53;42.08;;;20.20;;
61250;SDS011;47126;47.508;8.590;2022-11-12T00:50:20;46.78;;;21.67;;
61250;SDS011;47126;47.508;8.590;2022-11-12T00:52:46;43.67;;;20.77;;
61250;SDS011;47126;47.508;8.590;2022-11-12T00:55:12;44.65;;;21.55;;
61250;SDS011;47126;47.508;8.590;2022-11-12T00:57:38;40.13;;;20.33;;
61250;SDS011;47126;47.508;8.590;2022-11-12T01:00:04;43.97;;;21.40;;
61250;SDS011;47126;47.508;8.590;2022-11-12T01:02:30;41.35;;;20.25;;
61250;SDS011;47126;47.508;8.590;2022-11-12T01:04:56;42.92;;;21.33;;
61250;SDS011;47126;47.508;8.590;2022-11-12T01:07:22;41.63;;;20.13;;
61250;SDS011;47126;47.508;8.590;2022-11-12T01:09:48;42.97;;;20.77;;
61250;SDS011;47126;47.508;8.590;2022-11-12T01:12:14;43.22;;;20.13;;
61250;SDS011;47126;47.508;8.590;2022-11-12T01:14:40;40.35;;;19.88;;
61250;SDS011;47126;47.508;8.590;2022-11-12T01:17:06;34.10;;;18.23;;
61250;SDS011;47126;47.508;8.590;2022-11-12T01:19:32;39.03;;;18.60;;
61250;SDS011;47126;47.508;8.590;2022-11-12T01:21:58;36.13;;;18.48;;
61250;SDS011;47126;47.508;8.590;2022-11-12T01:24:24;39.28;;;19.27;;
61250;SDS011;47126;47.508;8.590;2022-11-12T01:26:50;38.75;;;18.67;;
61250;SDS011;47126;47.508;8.590;2022-11-12T01:29:16;37.40;;;19.73;;
61250;SDS011;47126;47.508;8.590;2022-11-12T01:31:42;41.53;;;18.23;;
61250;SDS011;47126;47.508;8.590;2022-11-12T01:34:08;37.60;;;19.23;;
61250;SDS011;47126;47.508;8.590;2022-11-12T01:36:35;34.13;;;18.33;;
61250;SDS011;47126;47.508;8.590;2022-11-12T01:39:02;33.95;;;16.55;;
61250;SDS011;47126;47.508;8.590;2022-11-12T01:41:29;34.85;;;17.02;;
61250;SDS011;47126;47.508;8.590;2022-11-12T01:46:42;34.38;;;18.52;;
61250;SDS011;47126;47.508;8.590;2022-11-12T01:49:16;39.25;;;18.55;;
61250;SDS011;47126;47.508;8.590;2022-11-12T01:51:45;37.47;;;17.90;;
61250;SDS011;47126;47.508;8.590;2022-11-12T01:54:12;37.38;;;18.48;;
61250;SDS011;47126;47.508;8.590;2022-11-12T01:56:40;39.40;;;19.23;;
61250;SDS011;47126;47.508;8.590;2022-11-12T01:59:07;36.20;;;18.27;;
61250;SDS011;47126;47.508;8.590;2022-11-12T02:01:35;38.63;;;18.52;;
61250;SDS011;47126;47.508;8.590;2022-11-12T02:04:02;36.40;;;18.17;;
61250;SDS011;47126;47.508;8.590;2022-11-12T02:06:28;35.00;;;18.60;;
61250;SDS011;47126;47.508;8.590;2022-11-12T02:08:55;40.88;;;18.50;;
61250;SDS011;47126;47.508;8.590;2022-11-12T02:11:21;38.45;;;19.25;;
61250;SDS011;47126;47.508;8.590;2022-11-12T02:13:47;44.95;;;20.67;;
61250;SDS011;47126;47.508;8.590;2022-11-12T02:16:35;42.10;;;19.65;;
61250;SDS011;47126;47.508;8.590;2022-11-12T02:19:01;40.30;;;19.00;;
61250;SDS011;47126;47.508;8.590;2022-11-12T02:21:28;44.28;;;20.70;;
61250;SDS011;47126;47.508;8.590;2022-11-12T02:24:30;36.85;;;18.08;;
61250;SDS011;47126;47.508;8.590;2022-11-12T02:26:47;40.35;;;20.58;;
61250;SDS011;47126;47.508;8.590;2022-11-12T02:29:15;41.00;;;19.48;;
61250;SDS011;47126;47.508;8.590;2022-11-12T02:31:41;40.88;;;19.58;;
61250;SDS011;47126;47.508;8.590;2022-11-12T02:34:07;40.50;;;18.95;;
61250;SDS011;47126;47.508;8.590;2022-11-12T02:36:32;39.08;;;18.73;;
61250;SDS011;47126;47.508;8.590;2022-11-12T02:38:58;41.47;;;19.33;;
61250;SDS011;47126;47.508;8.590;2022-11-12T02:41:25;38.30;;;20.08;;
61250;SDS011;47126;47.508;8.590;2022-11-12T02:43:51;41.50;;;20.15;;
61250;SDS011;47126;47.508;8.590;2022-11-12T02:46:17;40.72;;;19.75;;
61250;SDS011;47126;47.508;8.590;2022-11-12T02:48:43;37.63;;;19.27;;
61250;SDS011;47126;47.508;8.590;2022-11-12T02:51:09;39.30;;;19.13;;
61250;SDS011;47126;47.508;8.590;2022-11-12T02:53:35;40.25;;;18.88;;
61250;SDS011;47126;47.508;8.590;2022-11-12T02:56:01;41.60;;;20.77;;
61250;SDS011;47126;47.508;8.590;2022-11-12T02:58:27;40.47;;;19.35;;
61250;SDS011;47126;47.508;8.590;2022-11-12T03:00:54;39.55;;;19.77;;
61250;SDS011;47126;47.508;8.590;2022-11-12T03:03:20;39.45;;;18.50;;
61250;SDS011;47126;47.508;8.590;2022-11-12T03:05:53;43.97;;;21.70;;
61250;SDS011;47126;47.508;8.590;2022-11-12T03:08:19;39.75;;;18.88;;
61250;SDS011;47126;47.508;8.590;2022-11-12T03:10:45;44.30;;;21.17;;
61250;SDS011;47126;47.508;8.590;2022-11-12T03:13:11;40.20;;;20.60;;
61250;SDS011;47126;47.508;8.590;2022-11-12T03:15:37;38.08;;;18.92;;
61250;SDS011;47126;47.508;8.590;2022-11-12T03:18:03;43.50;;;20.13;;
61250;SDS011;47126;47.508;8.590;2022-11-12T03:20:28;37.17;;;18.95;;
61250;SDS011;47126;47.508;8.590;2022-11-12T03:22:58;44.38;;;20.90;;
61250;SDS011;47126;47.508;8.590;2022-11-12T03:25:25;46.83;;;20.83;;
61250;SDS011;47126;47.508;8.590;2022-11-12T03:28:05;48.35;;;22.52;;
61250;SDS011;47126;47.508;8.590;2022-11-12T03:30:32;45.97;;;21.63;;
61250;SDS011;47126;47.508;8.590;2022-11-12T03:32:58;50.00;;;20.98;;
61250;SDS011;47126;47.508;8.590;2022-11-12T03:35:24;44.55;;;19.70;;
61250;SDS011;47126;47.508;8.590;2022-11-12T03:37:50;49.42;;;21.33;;
61250;SDS011;47126;47.508;8.590;2022-11-12T03:40:17;42.33;;;20.80;;
61250;SDS011;47126;47.508;8.590;2022-11-12T03:42:47;47.72;;;21.88;;
61250;SDS011;47126;47.508;8.590;2022-11-12T03:45:13;48.58;;;22.70;;
61250;SDS011;47126;47.508;8.590;2022-11-12T03:47:41;45.83;;;20.88;;
61250;SDS011;47126;47.508;8.590;2022-11-12T03:50:07;45.08;;;21.90;;
61250;SDS011;47126;47.508;8.590;2022-11-12T03:52:34;46.00;;;21.05;;
61250;SDS011;47126;47.508;8.590;2022-11-12T03:55:00;41.42;;;20.25;;
61250;SDS011;47126;47.508;8.590;2022-11-12T03:57:26;46.33;;;20.35;;
61250;SDS011;47126;47.508;8.590;2022-11-12T03:59:52;42.90;;;20.52;;
61250;SDS011;47126;47.508;8.590;2022-11-12T04:02:18;43.83;;;20.98;;
61250;SDS011;47126;47.508;8.590;2022-11-12T04:04:44;45.17;;;21.20;;
61250;SDS011;47126;47.508;8.590;2022-11-12T04:07:28;42.75;;;20.13;;
61250;SDS011;47126;47.508;8.590;2022-11-12T04:10:13;46.35;;;22.00;;
61250;SDS011;47126;47.508;8.590;2022-11-12T04:12:39;48.08;;;21.70;;
61250;SDS011;47126;47.508;8.590;2022-11-12T04:15:23;47.63;;;22.02;;
61250;SDS011;47126;47.508;8.590;2022-11-12T04:17:49;42.70;;;20.98;;
61250;SDS011;47126;47.508;8.590;2022-11-12T04:20:34;49.25;;;22.08;;
61250;SDS011;47126;47.508;8.590;2022-11-12T04:23:32;44.17;;;20.52;;
61250;SDS011;47126;47.508;8.590;2022-11-12T04:25:58;52.13;;;21.98;;
61250;SDS011;47126;47.508;8.590;2022-11-12T04:28:42;50.30;;;20.77;;
61250;SDS011;47126;47.508;8.590;2022-11-12T04:31:28;47.92;;;22.08;;
61250;SDS011;47126;47.508;8.590;2022-11-12T04:33:55;42.75;;;20.65;;
61250;SDS011;47126;47.508;8.590;2022-11-12T04:36:40;52.28;;;22.52;;
61250;SDS011;47126;47.508;8.590;2022-11-12T04:39:06;51.13;;;22.13;;
61250;SDS011;47126;47.508;8.590;2022-11-12T04:41:32;52.78;;;22.55;;
61250;SDS011;47126;47.508;8.590;2022-11-12T04:44:17;47.40;;;22.10;;
61250;SDS011;47126;47.508;8.590;2022-11-12T04:47:02;44.92;;;21.40;;
61250;SDS011;47126;47.508;8.590;2022-11-12T04:49:28;50.28;;;22.30;;
61250;SDS011;47126;47.508;8.590;2022-11-12T04:51:53;45.85;;;22.65;;
61250;SDS011;47126;47.508;8.590;2022-11-12T04:54:28;53.70;;;23.95;;
61250;SDS011;47126;47.508;8.590;2022-11-12T04:56:54;47.78;;;21.80;;
61250;SDS011;47126;47.508;8.590;2022-11-12T04:59:20;58.17;;;23.77;;
61250;SDS011;47126;47.508;8.590;2022-11-12T05:01:46;51.28;;;22.35;;
61250;SDS011;47126;47.508;8.590;2022-11-12T05:04:12;60.30;;;25.17;;
61250;SDS011;47126;47.508;8.590;2022-11-12T05:06:38;53.90;;;24.52;;
61250;SDS011;47126;47.508;8.590;2022-11-12T05:09:16;58.10;;;25.50;;
61250;SDS011;47126;47.508;8.590;2022-11-12T05:11:42;51.53;;;24.73;;
61250;SDS011;47126;47.508;8.590;2022-11-12T05:14:08;63.45;;;25.98;;
61250;SDS011;47126;47.508;8.590;2022-11-12T05:16:34;53.08;;;23.85;;
61250;SDS011;47126;47.508;8.590;2022-11-12T05:19:01;61.97;;;24.30;;
61250;SDS011;47126;47.508;8.590;2022-11-12T05:21:27;54.58;;;23.40;;
61250;SDS011;47126;47.508;8.590;2022-11-12T05:24:11;59.85;;;24.70;;
61250;SDS011;47126;47.508;8.590;2022-11-12T05:26:37;59.03;;;25.20;;
61250;SDS011;47126;47.508;8.590;2022-11-12T05:29:03;55.53;;;23.42;;
61250;SDS011;47126;47.508;8.590;2022-11-12T05:31:30;51.58;;;23.30;;
61250;SDS011;47126;47.508;8.590;2022-11-12T05:33:56;62.72;;;25.60;;
61250;SDS011;47126;47.508;8.590;2022-11-12T05:36:22;64.88;;;25.80;;
61250;SDS011;47126;47.508;8.590;2022-11-12T05:38:48;63.03;;;26.67;;
61250;SDS011;47126;47.508;8.590;2022-11-12T05:41:13;59.70;;;25.38;;
61250;SDS011;47126;47.508;8.590;2022-11-12T05:43:39;60.75;;;25.77;;
61250;SDS011;47126;47.508;8.590;2022-11-12T05:46:05;63.15;;;25.23;;
61250;SDS011;47126;47.508;8.590;2022-11-12T05:48:31;58.80;;;25.27;;
61250;SDS011;47126;47.508;8.590;2022-11-12T05:50:57;59.60;;;26.20;;
61250;SDS011;47126;47.508;8.590;2022-11-12T05:53:23;53.67;;;23.35;;
61250;SDS011;47126;47.508;8.590;2022-11-12T05:55:49;58.50;;;24.98;;
61250;SDS011;47126;47.508;8.590;2022-11-12T05:58:15;59.97;;;25.40;;
61250;SDS011;47126;47.508;8.590;2022-11-12T06:00:41;59.38;;;25.17;;
61250;SDS011;47126;47.508;8.590;2022-11-12T06:03:08;58.80;;;24.67;;
61250;SDS011;47126;47.508;8.590;2022-11-12T06:05:34;57.15;;;24.42;;
61250;SDS011;47126;47.508;8.590;2022-11-12T06:08:00;61.72;;;25.85;;
61250;SDS011;47126;47.508;8.590;2022-11-12T06:10:27;64.22;;;26.08;;
61250;SDS011;47126;47.508;8.590;2022-11-12T06:12:53;58.10;;;24.23;;
61250;SDS011;47126;47.508;8.590;2022-11-12T06:15:19;63.45;;;26.67;;
61250;SDS011;47126;47.508;8.590;2022-11-12T06:17:46;57.30;;;24.52;;
61250;SDS011;47126;47.508;8.590;2022-11-12T06:20:12;64.18;;;24.60;;
61250;SDS011;47126;47.508;8.590;2022-11-12T06:22:38;54.90;;;24.00;;
61250;SDS011;47126;47.508;8.590;2022-11-12T06:25:04;54.75;;;23.30;;
61250;SDS011;47126;47.508;8.590;2022-11-12T06:27:30;54.03;;;23.85;;
61250;SDS011;47126;47.508;8.590;2022-11-12T06:29:56;59.90;;;24.48;;
61250;SDS011;47126;47.508;8.590;2022-11-12T06:32:25;53.03;;;23.48;;
61250;SDS011;47126;47.508;8.590;2022-11-12T06:34:51;59.80;;;22.67;;
61250;SDS011;47126;47.508;8.590;2022-11-12T06:37:17;57.63;;;22.80;;
61250;SDS011;47126;47.508;8.590;2022-11-12T06:39:43;59.05;;;23.23;;
61250;SDS011;47126;47.508;8.590;2022-11-12T06:42:09;61.97;;;21.85;;
61250;SDS011;47126;47.508;8.590;2022-11-12T06:44:35;59.03;;;23.80;;
61250;SDS011;47126;47.508;8.590;2022-11-12T06:47:01;53.47;;;22.27;;
61250;SDS011;47126;47.508;8.590;2022-11-12T06:49:27;54.85;;;22.10;;
61250;SDS011;47126;47.508;8.590;2022-11-12T06:51:53;55.00;;;21.42;;
61250;SDS011;47126;47.508;8.590;2022-11-12T06:54:19;55.05;;;21.67;;
61250;SDS011;47126;47.508;8.590;2022-11-12T06:56:45;57.78;;;22.88;;
61250;SDS011;47126;47.508;8.590;2022-11-12T06:59:11;56.85;;;22.63;;
61250;SDS011;47126;47.508;8.590;2022-11-12T07:01:37;56.22;;;22.92;;
61250;SDS011;47126;47.508;8.590;2022-11-12T07:04:03;55.85;;;22.23;;
61250;SDS011;47126;47.508;8.590;2022-11-12T07:06:29;55.47;;;22.35;;
61250;SDS011;47126;47.508;8.590;2022-11-12T07:08:55;57.65;;;23.20;;
61250;SDS011;47126;47.508;8.590;2022-11-12T07:11:21;53.75;;;22.80;;
61250;SDS011;47126;47.508;8.590;2022-11-12T07:13:47;51.65;;;20.42;;
61250;SDS011;47126;47.508;8.590;2022-11-12T07:16:13;47.70;;;21.17;;
61250;SDS011;47126;47.508;8.590;2022-11-12T07:18:43;52.33;;;21.65;;
61250;SDS011;47126;47.508;8.590;2022-11-12T07:21:10;47.53;;;20.98;;
61250;SDS011;47126;47.508;8.590;2022-11-12T07:23:36;42.97;;;18.40;;
61250;SDS011;47126;47.508;8.590;2022-11-12T07:26:03;40.30;;;17.50;;
61250;SDS011;47126;47.508;8.590;2022-11-12T07:28:30;44.08;;;19.98;;
61250;SDS011;47126;47.508;8.590;2022-11-12T07:31:01;47.90;;;21.20;;
61250;SDS011;47126;47.508;8.590;2022-11-12T07:33:27;47.88;;;20.67;;
61250;SDS011;47126;47.508;8.590;2022-11-12T07:36:01;46.05;;;19.52;;
61250;SDS011;47126;47.508;8.590;2022-11-12T07:38:28;52.08;;;20.80;;
61250;SDS011;47126;47.508;8.590;2022-11-12T07:41:05;41.85;;;19.35;;
61250;SDS011;47126;47.508;8.590;2022-11-12T07:43:31;42.15;;;18.05;;
61250;SDS011;47126;47.508;8.590;2022-11-12T07:45:58;39.05;;;18.35;;
61250;SDS011;47126;47.508;8.590;2022-11-12T07:48:24;37.92;;;19.33;;
61250;SDS011;47126;47.508;8.590;2022-11-12T07:50:50;40.25;;;17.60;;
61250;SDS011;47126;47.508;8.590;2022-11-12T07:53:16;38.58;;;19.10;;
61250;SDS011;47126;47.508;8.590;2022-11-12T07:55:42;37.80;;;16.65;;
61250;SDS011;47126;47.508;8.590;2022-11-12T07:58:08;36.80;;;16.35;;
61250;SDS011;47126;47.508;8.590;2022-11-12T08:00:34;35.53;;;15.77;;
61250;SDS011;47126;47.508;8.590;2022-11-12T08:03:00;36.83;;;16.38;;
61250;SDS011;47126;47.508;8.590;2022-11-12T08:05:26;36.80;;;16.58;;
61250;SDS011;47126;47.508;8.590;2022-11-12T08:07:55;35.70;;;16.23;;
61250;SDS011;47126;47.508;8.590;2022-11-12T08:10:21;37.47;;;17.38;;
61250;SDS011;47126;47.508;8.590;2022-11-12T08:12:47;35.10;;;15.40;;
61250;SDS011;47126;47.508;8.590;2022-11-12T08:15:13;39.15;;;17.42;;
61250;SDS011;47126;47.508;8.590;2022-11-12T08:17:39;33.42;;;16.70;;
61250;SDS011;47126;47.508;8.590;2022-11-12T08:20:05;34.33;;;17.55;;
61250;SDS011;47126;47.508;8.590;2022-11-12T08:22:31;33.72;;;14.60;;
61250;SDS011;47126;47.508;8.590;2022-11-12T08:24:57;33.88;;;16.58;;
61250;SDS011;47126;47.508;8.590;2022-11-12T08:27:23;34.55;;;16.05;;
61250;SDS011;47126;47.508;8.590;2022-11-12T08:29:49;31.23;;;14.82;;
61250;SDS011;47126;47.508;8.590;2022-11-12T08:32:15;27.80;;;13.25;;
61250;SDS011;47126;47.508;8.590;2022-11-12T08:34:41;30.23;;;13.85;;
61250;SDS011;47126;47.508;8.590;2022-11-12T08:37:07;30.83;;;14.07;;
61250;SDS011;47126;47.508;8.590;2022-11-12T08:39:33;31.05;;;14.63;;
61250;SDS011;47126;47.508;8.590;2022-11-12T08:41:59;29.50;;;16.70;;
61250;SDS011;47126;47.508;8.590;2022-11-12T08:44:25;28.15;;;16.55;;
61250;SDS011;47126;47.508;8.590;2022-11-12T08:46:51;28.17;;;13.38;;
61250;SDS011;47126;47.508;8.590;2022-11-12T08:49:17;26.73;;;13.88;;
61250;SDS011;47126;47.508;8.590;2022-11-12T08:51:43;30.40;;;14.60;;
61250;SDS011;47126;47.508;8.590;2022-11-12T08:54:09;30.63;;;15.02;;
61250;SDS011;47126;47.508;8.590;2022-11-12T08:56:35;36.50;;;16.80;;
61250;SDS011;47126;47.508;8.590;2022-11-12T08:59:01;26.73;;;13.20;;
61250;SDS011;47126;47.508;8.590;2022-11-12T09:01:27;28.48;;;12.93;;
61250;SDS011;47126;47.508;8.590;2022-11-12T09:03:53;32.63;;;13.65;;
61250;SDS011;47126;47.508;8.590;2022-11-12T09:06:18;30.05;;;13.52;;
61250;SDS011;47126;47.508;8.590;2022-11-12T09:08:44;30.00;;;13.30;;
61250;SDS011;47126;47.508;8.590;2022-11-12T09:11:10;30.23;;;13.88;;
61250;SDS011;47126;47.508;8.590;2022-11-12T09:13:36;33.20;;;14.48;;
61250;SDS011;47126;47.508;8.590;2022-11-12T09:16:03;30.05;;;13.70;;
61250;SDS011;47126;47.508;8.590;2022-11-12T09:18:29;28.50;;;13.38;;
61250;SDS011;47126;47.508;8.590;2022-11-12T09:21:02;30.52;;;12.98;;
61250;SDS011;47126;47.508;8.590;2022-11-12T09:23:29;32.05;;;13.50;;
61250;SDS011;47126;47.508;8.590;2022-11-12T09:25:55;30.90;;;14.18;;
61250;SDS011;47126;47.508;8.590;2022-11-12T09:28:21;29.23;;;13.80;;
61250;SDS011;47126;47.508;8.590;2022-11-12T09:30:48;32.88;;;13.63;;
61250;SDS011;47126;47.508;8.590;2022-11-12T09:33:19;31.40;;;14.73;;
61250;SDS011;47126;47.508;8.590;2022-11-12T09:35:45;37.53;;;15.15;;
61250;SDS011;47126;47.508;8.590;2022-11-12T09:38:12;30.35;;;14.25;;
61250;SDS011;47126;47.508;8.590;2022-11-12T09:43:17;28.17;;;12.20;;
61250;SDS011;47126;47.508;8.590;2022-11-12T09:45:47;33.10;;;14.85;;
61250;SDS011;47126;47.508;8.590;2022-11-12T09:48:15;33.33;;;14.07;;
61250;SDS011;47126;47.508;8.590;2022-11-12T09:50:47;37.70;;;15.35;;
61250;SDS011;47126;47.508;8.590;2022-11-12T09:53:25;34.72;;;14.57;;
61250;SDS011;47126;47.508;8.590;2022-11-12T09:55:52;27.85;;;14.15;;
61250;SDS011;47126;47.508;8.590;2022-11-12T09:58:18;31.75;;;13.35;;
61250;SDS011;47126;47.508;8.590;2022-11-12T10:00:51;27.90;;;13.60;;
61250;SDS011;47126;47.508;8.590;2022-11-12T10:06:18;30.17;;;13.35;;
61250;SDS011;47126;47.508;8.590;2022-11-12T10:23:54;23.00;;;11.45;;
61250;SDS011;47126;47.508;8.590;2022-11-12T10:26:22;21.55;;;11.27;;
61250;SDS011;47126;47.508;8.590;2022-11-12T10:28:50;21.23;;;10.70;;
61250;SDS011;47126;47.508;8.590;2022-11-12T10:31:19;22.33;;;11.07;;
61250;SDS011;47126;47.508;8.590;2022-11-12T10:33:45;21.27;;;10.50;;
61250;SDS011;47126;47.508;8.590;2022-11-12T10:36:23;21.60;;;10.60;;
61250;SDS011;47126;47.508;8.590;2022-11-12T10:38:51;21.98;;;10.90;;
61250;SDS011;47126;47.508;8.590;2022-11-12T10:43:51;24.30;;;12.48;;
61250;SDS011;47126;47.508;8.590;2022-11-12T10:46:18;24.73;;;11.60;;
61250;SDS011;47126;47.508;8.590;2022-11-12T10:48:52;23.25;;;11.60;;
61250;SDS011;47126;47.508;8.590;2022-11-12T10:51:22;23.02;;;11.35;;
61250;SDS011;47126;47.508;8.590;2022-11-12T10:53:50;19.70;;;10.55;;
61250;SDS011;47126;47.508;8.590;2022-11-12T10:56:26;20.27;;;10.27;;
61250;SDS011;47126;47.508;8.590;2022-11-12T10:59:09;21.90;;;10.73;;
61250;SDS011;47126;47.508;8.590;2022-11-12T11:01:35;24.25;;;11.82;;
61250;SDS011;47126;47.508;8.590;2022-11-12T11:04:01;22.80;;;11.27;;
61250;SDS011;47126;47.508;8.590;2022-11-12T11:06:27;21.50;;;10.40;;
61250;SDS011;47126;47.508;8.590;2022-11-12T11:09:07;21.50;;;10.82;;
61250;SDS011;47126;47.508;8.590;2022-11-12T11:11:34;22.27;;;10.80;;
61250;SDS011;47126;47.508;8.590;2022-11-12T11:16:51;23.33;;;11.10;;
61250;SDS011;47126;47.508;8.590;2022-11-12T11:19:18;21.23;;;10.18;;
61250;SDS011;47126;47.508;8.590;2022-11-12T11:21:50;18.77;;;9.45;;
61250;SDS011;47126;47.508;8.590;2022-11-12T11:27:16;19.95;;;10.52;;
61250;SDS011;47126;47.508;8.590;2022-11-12T11:30:02;21.13;;;10.65;;
61250;SDS011;47126;47.508;8.590;2022-11-12T11:37:45;19.42;;;10.18;;
61250;SDS011;47126;47.508;8.590;2022-11-12T11:43:04;19.85;;;9.73;;
61250;SDS011;47126;47.508;8.590;2022-11-12T12:03:16;29.60;;;13.00;;
61250;SDS011;47126;47.508;8.590;2022-11-12T12:08:34;18.42;;;9.68;;
61250;SDS011;47126;47.508;8.590;2022-11-12T12:11:02;24.65;;;12.75;;
61250;SDS011;47126;47.508;8.590;2022-11-12T12:16:18;20.13;;;10.07;;
61250;SDS011;47126;47.508;8.590;2022-11-12T12:21:32;19.30;;;10.38;;
61250;SDS011;47126;47.508;8.590;2022-11-12T12:26:43;20.25;;;10.48;;
61250;SDS011;47126;47.508;8.590;2022-11-12T12:31:38;19.33;;;10.27;;
61250;SDS011;47126;47.508;8.590;2022-11-12T12:34:08;21.58;;;11.30;;
61250;SDS011;47126;47.508;8.590;2022-11-12T12:36:40;22.98;;;10.68;;
61250;SDS011;47126;47.508;8.590;2022-11-12T12:39:25;22.13;;;10.93;;
61250;SDS011;47126;47.508;8.590;2022-11-12T12:41:56;18.13;;;10.48;;
61250;SDS011;47126;47.508;8.590;2022-11-12T12:47:09;19.35;;;10.32;;
61250;SDS011;47126;47.508;8.590;2022-11-12T12:49:36;19.23;;;11.23;;
61250;SDS011;47126;47.508;8.590;2022-11-12T12:52:03;20.30;;;9.65;;
61250;SDS011;47126;47.508;8.590;2022-11-12T12:57:02;21.15;;;11.02;;
61250;SDS011;47126;47.508;8.590;2022-11-12T12:59:28;25.85;;;12.52;;
61250;SDS011;47126;47.508;8.590;2022-11-12T13:01:55;21.13;;;11.20;;
61250;SDS011;47126;47.508;8.590;2022-11-12T13:04:48;18.10;;;10.00;;
61250;SDS011;47126;47.508;8.590;2022-11-12T13:07:11;20.17;;;11.50;;
61250;SDS011;47126;47.508;8.590;2022-11-12T13:09:37;21.25;;;11.48;;
61250;SDS011;47126;47.508;8.590;2022-11-12T13:12:03;19.90;;;11.23;;
61250;SDS011;47126;47.508;8.590;2022-11-12T13:25:02;20.27;;;11.82;;
61250;SDS011;47126;47.508;8.590;2022-11-12T13:37:56;21.33;;;11.90;;
61250;SDS011;47126;47.508;8.590;2022-11-12T13:42:49;23.42;;;12.63;;
61250;SDS011;47126;47.508;8.590;2022-11-12T13:45:16;23.10;;;12.70;;
61250;SDS011;47126;47.508;8.590;2022-11-12T13:47:43;23.73;;;12.27;;
61250;SDS011;47126;47.508;8.590;2022-11-12T13:50:12;26.10;;;13.20;;
61250;SDS011;47126;47.508;8.590;2022-11-12T13:52:39;21.98;;;12.70;;
61250;SDS011;47126;47.508;8.590;2022-11-12T13:57:40;22.35;;;12.27;;
61250;SDS011;47126;47.508;8.590;2022-11-12T14:02:42;23.13;;;11.77;;
61250;SDS011;47126;47.508;8.590;2022-11-12T14:05:15;24.70;;;12.93;;
61250;SDS011;47126;47.508;8.590;2022-11-12T14:13:11;25.42;;;12.68;;
61250;SDS011;47126;47.508;8.590;2022-11-12T14:15:59;23.77;;;12.88;;
61250;SDS011;47126;47.508;8.590;2022-11-12T14:21:05;27.15;;;13.07;;
61250;SDS011;47126;47.508;8.590;2022-11-12T14:23:36;23.08;;;12.55;;
61250;SDS011;47126;47.508;8.590;2022-11-12T14:26:02;26.40;;;13.07;;
61250;SDS011;47126;47.508;8.590;2022-11-12T14:28:32;26.95;;;13.48;;
61250;SDS011;47126;47.508;8.590;2022-11-12T14:30:59;24.25;;;13.60;;
61250;SDS011;47126;47.508;8.590;2022-11-12T14:33:26;26.98;;;13.68;;
61250;SDS011;47126;47.508;8.590;2022-11-12T14:35:53;28.05;;;13.90;;
61250;SDS011;47126;47.508;8.590;2022-11-12T14:38:33;28.20;;;13.80;;
61250;SDS011;47126;47.508;8.590;2022-11-12T14:41:23;28.45;;;13.98;;
61250;SDS011;47126;47.508;8.590;2022-11-12T14:43:49;31.08;;;14.43;;
61250;SDS011;47126;47.508;8.590;2022-11-12T14:46:28;30.52;;;15.05;;
61250;SDS011;47126;47.508;8.590;2022-11-12T14:51:44;32.25;;;14.77;;
61250;SDS011;47126;47.508;8.590;2022-11-12T14:54:13;26.23;;;14.02;;
61250;SDS011;47126;47.508;8.590;2022-11-12T14:56:41;29.88;;;15.02;;
61250;SDS011;47126;47.508;8.590;2022-11-12T14:59:09;33.80;;;18.10;;
61250;SDS011;47126;47.508;8.590;2022-11-12T15:01:37;47.38;;;22.95;;
61250;SDS011;47126;47.508;8.590;2022-11-12T15:06:37;39.15;;;20.25;;
61250;SDS011;47126;47.508;8.590;2022-11-12T15:09:03;36.85;;;16.35;;
61250;SDS011;47126;47.508;8.590;2022-11-12T15:13:56;34.63;;;17.33;;
61250;SDS011;47126;47.508;8.590;2022-11-12T15:16:34;33.55;;;17.00;;
61250;SDS011;47126;47.508;8.590;2022-11-12T15:19:05;36.90;;;16.75;;
61250;SDS011;47126;47.508;8.590;2022-11-12T15:21:32;38.38;;;17.52;;
61250;SDS011;47126;47.508;8.590;2022-11-12T15:24:06;36.13;;;16.50;;
61250;SDS011;47126;47.508;8.590;2022-11-12T15:29:02;37.22;;;17.35;;
61250;SDS011;47126;47.508;8.590;2022-11-12T15:31:49;39.17;;;18.05;;
61250;SDS011;47126;47.508;8.590;2022-11-12T15:36:50;42.75;;;18.30;;
61250;SDS011;47126;47.508;8.590;2022-11-12T15:39:16;40.88;;;19.42;;
61250;SDS011;47126;47.508;8.590;2022-11-12T15:41:43;37.28;;;17.77;;
61250;SDS011;47126;47.508;8.590;2022-11-12T15:44:09;45.30;;;19.48;;
61250;SDS011;47126;47.508;8.590;2022-11-12T15:46:35;39.97;;;17.67;;
61250;SDS011;47126;47.508;8.590;2022-11-12T15:49:02;43.33;;;19.23;;
61250;SDS011;47126;47.508;8.590;2022-11-12T15:51:28;37.92;;;18.52;;
61250;SDS011;47126;47.508;8.590;2022-11-12T15:53:54;42.83;;;19.30;;
61250;SDS011;47126;47.508;8.590;2022-11-12T15:56:19;42.63;;;19.08;;
61250;SDS011;47126;47.508;8.590;2022-11-12T15:58:46;47.13;;;19.10;;
61250;SDS011;47126;47.508;8.590;2022-11-12T16:01:12;43.63;;;20.50;;
61250;SDS011;47126;47.508;8.590;2022-11-12T16:03:38;43.42;;;18.88;;
61250;SDS011;47126;47.508;8.590;2022-11-12T16:06:04;45.10;;;19.65;;
61250;SDS011;47126;47.508;8.590;2022-11-12T16:08:30;39.25;;;18.73;;
61250;SDS011;47126;47.508;8.590;2022-11-12T16:10:56;39.38;;;18.65;;
61250;SDS011;47126;47.508;8.590;2022-11-12T16:13:26;44.85;;;19.60;;
61250;SDS011;47126;47.508;8.590;2022-11-12T16:15:53;46.28;;;19.30;;
61250;SDS011;47126;47.508;8.590;2022-11-12T16:18:19;43.17;;;19.30;;
61250;SDS011;47126;47.508;8.590;2022-11-12T16:20:45;45.75;;;19.73;;
61250;SDS011;47126;47.508;8.590;2022-11-12T16:23:13;42.92;;;19.02;;
61250;SDS011;47126;47.508;8.590;2022-11-12T16:25:39;42.20;;;19.58;;
61250;SDS011;47126;47.508;8.590;2022-11-12T16:28:13;42.83;;;18.73;;
61250;SDS011;47126;47.508;8.590;2022-11-12T16:30:39;45.70;;;20.20;;
61250;SDS011;47126;47.508;8.590;2022-11-12T16:33:05;41.08;;;18.42;;